createdAt,value
2016-04-11T00:00:09.209Z,30.9
2016-04-11T00:01:09.148Z,31
2016-04-11T00:02:09.104Z,30.81
2016-04-11T00:03:09.060Z,30.81
2016-04-11T00:04:09.015Z,30.81
2016-04-11T00:05:08.987Z,31
2016-04-11T00:06:08.927Z,30.9
2016-04-11T00:07:08.884Z,30.9
2016-04-11T00:08:11.823Z,30.81
2016-04-11T00:09:13.201Z,30.9
2016-04-11T00:10:11.751Z,30.71
2016-04-11T00:11:11.707Z,30.81
2016-04-11T00:12:08.647Z,30.81
2016-04-11T00:13:08.930Z,30.71
2016-04-11T00:14:08.542Z,30.9
2016-04-11T00:15:08.500Z,30.81
2016-04-11T00:16:08.456Z,30.9
2016-04-11T00:17:08.411Z,30.9
2016-04-11T00:18:11.398Z,30.81
2016-04-11T00:19:08.307Z,30.81
2016-04-11T00:20:08.264Z,31
2016-04-11T00:21:08.203Z,30.9
2016-04-11T00:22:11.237Z,30.9
2016-04-11T00:23:08.147Z,30.9
2016-04-11T00:24:08.070Z,30.9
2016-04-11T00:25:11.027Z,30.9
2016-04-11T00:26:08.185Z,30.81
2016-04-11T00:27:07.938Z,30.9
2016-04-11T00:28:07.910Z,31
2016-04-11T00:29:08.053Z,30.81
2016-04-11T00:30:07.790Z,30.81
2016-04-11T00:31:07.746Z,30.81
2016-04-11T00:32:07.905Z,30.52
2016-04-11T00:33:07.667Z,30.9
2016-04-11T00:34:07.442Z,30.9
2016-04-11T00:35:10.555Z,30.9
2016-04-11T00:36:10.404Z,31
2016-04-11T00:37:07.455Z,30.81
2016-04-11T00:38:07.489Z,31
2016-04-11T00:39:07.367Z,30.81
2016-04-11T00:40:07.307Z,30.81
2016-04-11T00:41:07.279Z,30.71
2016-04-11T00:42:07.124Z,30.71
2016-04-11T00:43:07.174Z,30.52
2016-04-11T00:44:07.115Z,30.71
2016-04-11T00:45:07.086Z,30.71
2016-04-11T00:46:07.026Z,30.52
2016-04-11T00:47:07.029Z,30.81
2016-04-11T00:48:07.235Z,30.62
2016-04-11T00:49:07.207Z,30.9
2016-04-11T00:50:06.834Z,30.9
2016-04-11T00:51:10.009Z,30.9
2016-04-11T00:52:06.777Z,30.81
2016-04-11T00:53:06.702Z,30.81
2016-04-11T00:54:06.642Z,30.43
2016-04-11T00:55:09.613Z,30.81
2016-04-11T00:56:06.569Z,30.71
2016-04-11T00:57:06.540Z,30.9
2016-04-11T00:58:06.481Z,30.71
2016-04-11T00:59:09.639Z,30.62
2016-04-11T01:00:06.376Z,30.71
2016-04-11T01:01:09.348Z,30.62
2016-04-11T01:02:09.522Z,30.71
2016-04-11T01:03:09.259Z,30.62
2016-04-11T01:04:09.199Z,30.81
2016-04-11T01:05:06.139Z,30.81
2016-04-11T01:06:06.096Z,30.71
2016-04-11T01:07:09.067Z,30.9
2016-04-11T01:08:09.008Z,30.81
2016-04-11T01:09:09.073Z,30.71
2016-04-11T01:10:08.908Z,30.9
2016-04-11T01:11:05.849Z,30.9
2016-04-11T01:12:06.241Z,30.71
2016-04-11T01:13:05.760Z,30.71
2016-04-11T01:14:06.029Z,30.71
2016-04-11T01:15:14.687Z,30.81
2016-04-11T01:16:08.847Z,30.81
2016-04-11T01:17:08.599Z,30.71
2016-04-11T01:18:05.524Z,30.62
2016-04-11T01:19:08.917Z,30.71
2016-04-11T01:20:05.435Z,30.81
2016-04-11T01:21:05.391Z,30.71
2016-04-11T01:22:05.331Z,30.9
2016-04-11T01:23:05.303Z,30.9
2016-04-11T01:24:05.273Z,30.71
2016-04-11T01:25:05.214Z,30.81
2016-04-11T01:26:05.170Z,30.71
2016-04-11T01:27:08.032Z,30.71
2016-04-11T01:28:05.066Z,30.71
2016-04-11T01:29:08.053Z,30.81
2016-04-11T01:30:04.978Z,30.62
2016-04-11T01:31:04.917Z,30.62
2016-04-11T01:32:04.905Z,30.81
2016-04-11T01:33:04.830Z,30.71
2016-04-11T01:34:04.786Z,30.62
2016-04-11T01:35:07.741Z,30.62
2016-04-11T01:36:07.900Z,30.71
2016-04-11T01:37:04.652Z,30.62
2016-04-11T01:38:04.624Z,30.62
2016-04-11T01:39:04.533Z,30.62
2016-04-11T01:40:04.504Z,30.62
2016-04-11T01:41:04.461Z,30.62
2016-04-11T01:42:04.635Z,30.62
2016-04-11T01:43:04.357Z,30.62
2016-04-11T01:44:07.312Z,30.52
2016-04-11T01:45:07.268Z,30.71
2016-04-11T01:46:04.224Z,30.62
2016-04-11T01:47:04.165Z,30.62
2016-04-11T01:48:04.135Z,30.62
2016-04-11T01:49:04.060Z,30.62
2016-04-11T01:50:07.234Z,30.52
2016-04-11T01:51:04.003Z,30.71
2016-04-11T01:52:03.943Z,30.71
2016-04-11T01:53:03.899Z,30.71
2016-04-11T01:54:03.855Z,30.62
2016-04-11T01:55:03.811Z,30.71
2016-04-11T01:56:03.782Z,30.62
2016-04-11T01:57:03.753Z,30.62
2016-04-11T01:58:03.662Z,30.62
2016-04-11T01:59:06.634Z,30.71
2016-04-11T02:00:03.574Z,30.62
2016-04-11T02:01:03.530Z,30.52
2016-04-11T02:02:03.485Z,30.33
2016-04-11T02:03:06.441Z,30.43
2016-04-11T02:04:03.381Z,30.33
2016-04-11T02:05:03.338Z,30.81
2016-04-11T02:06:03.277Z,30.33
2016-04-11T02:07:03.437Z,30.71
2016-04-11T02:08:06.205Z,30.71
2016-04-11T02:09:03.145Z,30.81
2016-04-11T02:10:06.101Z,30.62
2016-04-11T02:11:03.041Z,30.43
2016-04-11T02:12:03.013Z,30.71
2016-04-11T02:13:02.952Z,30.62
2016-04-11T02:14:02.908Z,30.52
2016-04-11T02:15:02.848Z,30.23
2016-04-11T02:16:02.821Z,30.23
2016-04-11T02:17:02.776Z,30.33
2016-04-11T02:18:02.919Z,30.62
2016-04-11T02:19:02.687Z,30.23
2016-04-11T02:20:02.629Z,30.23
2016-04-11T02:21:02.568Z,30.23
2016-04-11T02:22:02.601Z,30.33
2016-04-11T02:23:02.479Z,30.23
2016-04-11T02:24:02.639Z,30.52
2016-04-11T02:25:02.392Z,30.23
2016-04-11T02:26:02.347Z,30.33
2016-04-11T02:27:02.303Z,30.62
2016-04-11T02:28:05.258Z,30.52
2016-04-11T02:29:05.214Z,30.33
2016-04-11T02:30:05.155Z,30.23
2016-04-11T02:31:02.126Z,30.62
2016-04-11T02:32:02.066Z,30.43
2016-04-11T02:33:02.023Z,30.52
2016-04-11T02:34:01.994Z,30.71
2016-04-11T02:35:01.919Z,30.52
2016-04-11T02:36:02.077Z,30.33
2016-04-11T02:37:04.830Z,30.14
2016-04-11T02:38:01.770Z,30.52
2016-04-11T02:39:01.742Z,30.52
2016-04-11T02:40:01.682Z,30.23
2016-04-11T02:41:01.638Z,30.43
2016-04-11T02:42:07.655Z,30.23
2016-04-11T02:43:01.549Z,30.33
2016-04-11T02:44:01.488Z,30.43
2016-04-11T02:45:04.445Z,30.52
2016-04-11T02:46:01.604Z,30.33
2016-04-11T02:47:04.372Z,30.52
2016-04-11T02:48:01.313Z,30.52
2016-04-11T02:49:01.268Z,30.43
2016-04-11T02:50:01.223Z,30.14
2016-04-11T02:51:04.195Z,30.43
2016-04-11T02:52:01.323Z,30.43
2016-04-11T02:53:01.076Z,30.43
2016-04-11T02:54:04.047Z,30.52
2016-04-11T02:55:04.018Z,30.23
2016-04-11T02:56:00.942Z,30.33
2016-04-11T02:57:00.899Z,30.52
2016-04-11T02:58:00.839Z,30.52
2016-04-11T02:59:01.092Z,30.52
2016-04-11T03:00:00.611Z,30.23
2016-04-11T03:01:03.707Z,30.33
2016-04-11T03:02:00.678Z,30.23
2016-04-11T03:03:00.633Z,30.14
2016-04-11T03:04:00.574Z,30.04
2016-04-11T03:05:00.514Z,30.14
2016-04-11T03:06:00.673Z,30.23
2016-04-11T03:07:00.441Z,30.23
2016-04-11T03:08:00.366Z,30.23
2016-04-11T03:09:03.321Z,30.14
2016-04-11T03:10:00.277Z,30.14
2016-04-11T03:11:00.265Z,30.23
2016-04-11T03:12:03.424Z,30.14
2016-04-11T03:13:00.145Z,30.33
2016-04-11T03:14:00.086Z,30.23
2016-04-11T03:15:00.057Z,30.23
2016-04-11T03:16:00.013Z,30.23
2016-04-11T03:17:02.952Z,30.23
2016-04-11T03:17:59.909Z,30.23
2016-04-11T03:19:02.865Z,30.23
2016-04-11T03:20:02.820Z,30.04
2016-04-11T03:21:02.792Z,30.23
2016-04-11T03:21:59.716Z,29.94
2016-04-11T03:23:02.687Z,30.04
2016-04-11T03:23:59.612Z,29.94
2016-04-11T03:24:59.584Z,30.23
2016-04-11T03:26:02.570Z,30.04
2016-04-11T03:26:59.479Z,29.85
2016-04-11T03:28:02.654Z,30.04
2016-04-11T03:28:59.392Z,29.94
2016-04-11T03:29:59.347Z,30.04
2016-04-11T03:30:59.287Z,30.14
2016-04-11T03:31:59.446Z,30.33
2016-04-11T03:32:59.245Z,30.33
2016-04-11T03:34:05.373Z,30.04
2016-04-11T03:34:59.126Z,30.04
2016-04-11T03:36:02.082Z,30.04
2016-04-11T03:37:02.038Z,30.04
2016-04-11T03:38:01.962Z,30.33
2016-04-11T03:39:01.950Z,29.75
2016-04-11T03:39:58.874Z,30.33
2016-04-11T03:40:58.830Z,30.04
2016-04-11T03:41:58.974Z,30.23
2016-04-11T03:42:58.727Z,30.33
2016-04-11T03:44:01.697Z,30.23
2016-04-11T03:44:58.653Z,30.33
2016-04-11T03:46:01.609Z,30.43
2016-04-11T03:46:58.565Z,30.14
2016-04-11T03:47:58.505Z,30.14
2016-04-11T03:48:58.461Z,30.14
2016-04-11T03:49:58.416Z,30.14
2016-04-11T03:50:58.373Z,30.04
2016-04-11T03:52:01.312Z,29.94
2016-04-11T03:52:58.284Z,29.85
2016-04-11T03:53:58.240Z,29.85
2016-04-11T03:54:58.367Z,29.85
2016-04-11T03:56:01.136Z,29.94
2016-04-11T03:56:58.076Z,29.75
2016-04-11T03:57:58.032Z,29.94
2016-04-11T03:58:58.190Z,29.85
2016-04-11T03:59:58.147Z,29.85
2016-04-11T04:01:00.899Z,30.04
2016-04-11T04:02:04.059Z,30.14
2016-04-11T04:02:57.811Z,29.94
2016-04-11T04:03:58.173Z,30.14
2016-04-11T04:04:57.722Z,30.04
2016-04-11T04:05:57.663Z,30.04
2016-04-11T04:06:58.008Z,29.56
2016-04-11T04:07:57.887Z,29.75
2016-04-11T04:08:57.514Z,29.85
2016-04-11T04:09:57.470Z,29.85
2016-04-11T04:11:00.426Z,29.66
2016-04-11T04:12:00.383Z,29.94
2016-04-11T04:12:57.322Z,29.85
2016-04-11T04:13:57.278Z,29.94
2016-04-11T04:14:57.249Z,29.75
2016-04-11T04:15:57.187Z,29.85
2016-04-11T04:16:57.127Z,29.75
2016-04-11T04:18:00.102Z,29.56
2016-04-11T04:18:57.039Z,29.56
2016-04-11T04:20:02.997Z,29.47
2016-04-11T04:20:56.966Z,29.47
2016-04-11T04:21:56.890Z,29.56
2016-04-11T04:22:56.862Z,29.56
2016-04-11T04:23:57.021Z,29.47
2016-04-11T04:24:56.791Z,29.56
2016-04-11T04:25:56.806Z,29.56
2016-04-11T04:26:59.837Z,29.56
2016-04-11T04:27:59.837Z,29.56
2016-04-11T04:28:59.831Z,29.66
2016-04-11T04:29:56.752Z,29.66
2016-04-11T04:30:56.724Z,29.56
2016-04-11T04:31:57.101Z,29.47
2016-04-11T04:32:56.668Z,29.66
2016-04-11T04:33:56.639Z,29.56
2016-04-11T04:34:56.602Z,29.37
2016-04-11T04:35:56.579Z,29.47
2016-04-11T04:36:56.525Z,29.27
2016-04-11T04:37:56.503Z,29.37
2016-04-11T04:38:56.464Z,29.47
2016-04-11T04:39:56.392Z,29.47
2016-04-11T04:40:56.349Z,29.37
2016-04-11T04:41:56.354Z,29.47
2016-04-11T04:42:56.250Z,29.08
2016-04-11T04:43:56.207Z,29.27
2016-04-11T04:44:56.164Z,29.37
2016-04-11T04:45:56.120Z,29.17
2016-04-11T04:46:56.061Z,29.37
2016-04-11T04:47:56.033Z,29.17
2016-04-11T04:48:56.194Z,29.17
2016-04-11T04:49:55.931Z,29.27
2016-04-11T04:50:55.872Z,29.27
2016-04-11T04:51:58.859Z,29.17
2016-04-11T04:52:55.784Z,29.37
2016-04-11T04:53:55.740Z,29.27
2016-04-11T04:54:55.899Z,29.27
2016-04-11T04:55:55.636Z,29.27
2016-04-11T04:56:55.607Z,29.27
2016-04-11T04:57:55.548Z,29.27
2016-04-11T04:58:55.504Z,29.27
2016-04-11T04:59:55.475Z,29.37
2016-04-11T05:00:58.634Z,29.27
2016-04-11T05:01:58.370Z,29.27
2016-04-11T05:02:55.343Z,29.17
2016-04-11T05:03:55.267Z,29.27
2016-04-11T05:04:55.223Z,29.17
2016-04-11T05:05:55.179Z,29.27
2016-04-11T05:06:55.431Z,29.17
2016-04-11T05:07:55.090Z,29.27
2016-04-11T05:08:55.046Z,29.27
2016-04-11T05:09:55.002Z,29.17
2016-04-11T05:10:54.958Z,29.17
2016-04-11T05:11:57.898Z,29.17
2016-04-11T05:12:54.853Z,29.27
2016-04-11T05:13:54.810Z,29.27
2016-04-11T05:14:54.765Z,29.27
2016-04-11T05:15:54.705Z,29.17
2016-04-11T05:16:54.661Z,29.27
2016-04-11T05:17:54.617Z,29.27
2016-04-11T05:18:54.573Z,29.27
2016-04-11T05:19:54.513Z,29.37
2016-04-11T05:20:54.469Z,29.37
2016-04-11T05:21:54.440Z,29.37
2016-04-11T05:22:54.396Z,29.37
2016-04-11T05:23:54.337Z,29.37
2016-04-11T05:24:54.292Z,29.37
2016-04-11T05:25:54.467Z,29.37
2016-04-11T05:26:54.188Z,29.37
2016-04-11T05:27:54.144Z,29.37
2016-04-11T05:28:53.991Z,29.47
2016-04-11T05:29:57.071Z,29.47
2016-04-11T05:30:54.012Z,29.47
2016-04-11T05:31:53.998Z,29.56
2016-04-11T05:32:53.923Z,29.56
2016-04-11T05:33:53.879Z,29.47
2016-04-11T05:34:54.022Z,29.47
2016-04-11T05:35:53.775Z,29.56
2016-04-11T05:36:53.934Z,29.47
2016-04-11T05:37:56.686Z,29.47
2016-04-11T05:38:53.642Z,29.47
2016-04-11T05:39:53.583Z,29.47
2016-04-11T05:40:53.553Z,29.37
2016-04-11T05:41:53.494Z,29.37
2016-04-11T05:42:53.514Z,29.47
2016-04-11T05:43:53.422Z,29.47
2016-04-11T05:44:53.362Z,29.27
2016-04-11T05:45:56.317Z,29.47
2016-04-11T05:46:53.274Z,29.47
2016-04-11T05:47:53.230Z,29.37
2016-04-11T05:48:53.169Z,29.47
2016-04-11T05:49:53.125Z,29.37
2016-04-11T05:50:53.377Z,29.37
2016-04-11T05:51:53.021Z,29.37
2016-04-11T05:52:52.977Z,29.08
2016-04-11T05:53:52.933Z,29.37
2016-04-11T05:54:52.904Z,29.17
2016-04-11T05:55:52.844Z,29.37
2016-04-11T05:56:52.785Z,29.27
2016-04-11T05:57:55.757Z,29.37
2016-04-11T05:58:52.712Z,29.37
2016-04-11T05:59:52.652Z,29.37
2016-04-11T06:00:52.608Z,29.37
2016-04-11T06:01:52.564Z,29.37
2016-04-11T06:02:52.348Z,29.47
2016-04-11T06:03:52.475Z,29.37
2016-04-11T06:04:52.618Z,29.37
2016-04-11T06:05:52.371Z,29.37
2016-04-11T06:06:52.312Z,29.37
2016-04-11T06:07:52.470Z,29.47
2016-04-11T06:08:52.224Z,29.47
2016-04-11T06:09:52.178Z,29.37
2016-04-11T06:10:52.134Z,29.17
2016-04-11T06:11:52.075Z,29.47
2016-04-11T06:12:52.078Z,29.17
2016-04-11T06:13:52.002Z,29.47
2016-04-11T06:14:51.958Z,29.47
2016-04-11T06:15:51.898Z,29.37
2016-04-11T06:16:51.839Z,29.47
2016-04-11T06:17:51.826Z,29.56
2016-04-11T06:18:51.813Z,29.47
2016-04-11T06:19:51.705Z,29.47
2016-04-11T06:20:51.678Z,29.37
2016-04-11T06:21:51.633Z,29.37
2016-04-11T06:22:51.573Z,29.47
2016-04-11T06:23:51.530Z,29.37
2016-04-11T06:24:51.485Z,29.47
2016-04-11T06:25:51.425Z,29.47
2016-04-11T06:26:51.382Z,29.37
2016-04-11T06:27:51.602Z,29.37
2016-04-11T06:28:51.308Z,29.37
2016-04-11T06:29:51.436Z,29.37
2016-04-11T06:30:51.720Z,29.37
2016-04-11T06:31:51.145Z,29.37
2016-04-11T06:32:51.304Z,29.37
2016-04-11T06:33:51.088Z,29.17
2016-04-11T06:34:51.028Z,29.08
2016-04-11T06:35:50.967Z,29.17
2016-04-11T06:36:50.909Z,29.37
2016-04-11T06:37:50.879Z,29.08
2016-04-11T06:38:51.022Z,29.27
2016-04-11T06:39:53.792Z,29.08
2016-04-11T06:40:50.715Z,29.08
2016-04-11T06:41:50.687Z,29.08
2016-04-11T06:42:50.659Z,29.08
2016-04-11T06:43:50.598Z,29.08
2016-04-11T06:44:50.539Z,28.99
2016-04-11T06:45:50.495Z,29.08
2016-04-11T06:46:50.466Z,29.17
2016-04-11T06:47:50.422Z,29.17
2016-04-11T06:48:50.362Z,29.08
2016-04-11T06:49:50.319Z,28.99
2016-04-11T06:50:50.258Z,28.99
2016-04-11T06:51:50.526Z,29.08
2016-04-11T06:52:50.155Z,29.08
2016-04-11T06:53:50.141Z,29.37
2016-04-11T06:54:50.081Z,29.17
2016-04-11T06:55:50.038Z,29.17
2016-04-11T06:56:49.977Z,29.37
2016-04-11T06:57:50.027Z,29.27
2016-04-11T06:58:49.889Z,29.08
2016-04-11T06:59:49.829Z,29.37
2016-04-11T07:00:49.848Z,29.37
2016-04-11T07:01:49.756Z,29.08
2016-04-11T07:02:49.712Z,29.27
2016-04-11T07:03:52.699Z,29.08
2016-04-11T07:04:49.624Z,29.08
2016-04-11T07:05:49.565Z,29.17
2016-04-11T07:06:49.520Z,29.08
2016-04-11T07:07:49.476Z,29.37
2016-04-11T07:08:52.448Z,28.99
2016-04-11T07:09:52.372Z,29.08
2016-04-11T07:10:49.343Z,29.27
2016-04-11T07:11:52.298Z,29.37
2016-04-11T07:12:49.239Z,29.37
2016-04-11T07:13:52.601Z,29.47
2016-04-11T07:14:49.213Z,29.37
2016-04-11T07:15:49.216Z,29.37
2016-04-11T07:16:49.141Z,29.17
2016-04-11T07:17:49.065Z,29.27
2016-04-11T07:18:49.006Z,29.37
2016-04-11T07:19:49.320Z,29.47
2016-04-11T07:20:48.948Z,29.56
2016-04-11T07:21:48.825Z,29.47
2016-04-11T07:22:48.750Z,29.56
2016-04-11T07:23:48.722Z,29.47
2016-04-11T07:24:48.679Z,29.56
2016-04-11T07:25:48.620Z,29.47
2016-04-11T07:26:48.607Z,29.47
2016-04-11T07:27:48.594Z,29.47
2016-04-11T07:28:48.487Z,29.47
2016-04-11T07:29:48.490Z,29.47
2016-04-11T07:30:51.414Z,29.37
2016-04-11T07:31:48.354Z,29.56
2016-04-11T07:32:51.327Z,29.47
2016-04-11T07:33:48.313Z,29.47
2016-04-11T07:34:48.222Z,29.47
2016-04-11T07:35:48.178Z,29.56
2016-04-11T07:36:48.150Z,29.56
2016-04-11T07:37:48.073Z,29.47
2016-04-11T07:38:48.014Z,29.47
2016-04-11T07:39:47.986Z,29.47
2016-04-11T07:40:47.957Z,29.56
2016-04-11T07:41:47.881Z,29.56
2016-04-11T07:42:48.041Z,29.47
2016-04-11T07:43:47.794Z,29.37
2016-04-11T07:44:47.764Z,29.47
2016-04-11T07:45:47.705Z,29.47
2016-04-11T07:46:47.661Z,29.47
2016-04-11T07:47:47.600Z,29.56
2016-04-11T07:48:47.573Z,29.47
2016-04-11T07:49:47.513Z,29.56
2016-04-11T07:50:47.688Z,29.56
2016-04-11T07:51:47.440Z,29.56
2016-04-11T07:52:47.379Z,29.37
2016-04-11T07:53:47.321Z,29.66
2016-04-11T07:54:47.276Z,29.47
2016-04-11T07:55:47.216Z,29.47
2016-04-11T07:56:47.172Z,29.47
2016-04-11T07:57:47.127Z,29.47
2016-04-11T07:58:47.162Z,29.47
2016-04-11T07:59:50.508Z,29.47
2016-04-11T08:00:47.010Z,29.47
2016-04-11T08:01:47.263Z,29.47
2016-04-11T08:02:46.923Z,29.37
2016-04-11T08:03:49.894Z,29.47
2016-04-11T08:04:46.834Z,29.37
2016-04-11T08:05:46.774Z,29.47
2016-04-11T08:06:46.730Z,29.37
2016-04-11T08:07:46.701Z,29.37
2016-04-11T08:08:46.642Z,29.47
2016-04-11T08:09:46.617Z,29.47
2016-04-11T08:10:46.559Z,29.47
2016-04-11T08:11:46.514Z,29.47
2016-04-11T08:12:46.438Z,29.37
2016-04-11T08:13:46.394Z,29.56
2016-04-11T08:14:46.350Z,29.47
2016-04-11T08:15:46.338Z,29.47
2016-04-11T08:16:46.496Z,29.47
2016-04-11T08:17:46.379Z,29.47
2016-04-11T08:18:46.194Z,29.47
2016-04-11T08:19:46.243Z,29.47
2016-04-11T08:20:46.091Z,29.47
2016-04-11T08:21:46.062Z,29.47
2016-04-11T08:22:46.267Z,29.37
2016-04-11T08:23:46.051Z,29.37
2016-04-11T08:24:45.912Z,29.37
2016-04-11T08:25:46.026Z,29.27
2016-04-11T08:26:45.840Z,29.27
2016-04-11T08:27:45.749Z,29.17
2016-04-11T08:28:48.706Z,29.27
2016-04-11T08:29:45.661Z,29.17
2016-04-11T08:30:45.601Z,29.27
2016-04-11T08:31:48.635Z,29.27
2016-04-11T08:32:45.623Z,29.37
2016-04-11T08:33:45.625Z,29.37
2016-04-11T08:34:45.409Z,29.37
2016-04-11T08:35:45.553Z,29.27
2016-04-11T08:36:45.320Z,29.17
2016-04-11T08:37:45.261Z,29.37
2016-04-11T08:38:45.217Z,29.27
2016-04-11T08:39:45.188Z,29.37
2016-04-11T08:40:45.144Z,29.17
2016-04-11T08:41:45.147Z,29.17
2016-04-11T08:42:45.055Z,29.17
2016-04-11T08:43:45.011Z,29.27
2016-04-11T08:44:44.936Z,29.27
2016-04-11T08:45:47.907Z,29.17
2016-04-11T08:46:44.863Z,29.17
2016-04-11T08:47:44.882Z,29.27
2016-04-11T08:48:47.774Z,29.37
2016-04-11T08:49:44.715Z,29.47
2016-04-11T08:50:47.655Z,29.47
2016-04-11T08:51:44.627Z,29.27
2016-04-11T08:52:44.738Z,29.37
2016-04-11T08:53:44.553Z,29.27
2016-04-11T08:54:44.494Z,29.37
2016-04-11T08:55:44.434Z,29.47
2016-04-11T08:56:44.796Z,29.47
2016-04-11T08:57:44.501Z,29.37
2016-04-11T08:58:47.332Z,29.47
2016-04-11T08:59:47.242Z,29.27
2016-04-11T09:00:44.197Z,29.27
2016-04-11T09:01:44.232Z,29.47
2016-04-11T09:02:44.093Z,29.47
2016-04-11T09:03:44.128Z,29.37
2016-04-11T09:04:44.036Z,29.56
2016-04-11T09:05:43.961Z,29.47
2016-04-11T09:06:43.901Z,29.56
2016-04-11T09:07:43.872Z,29.56
2016-04-11T09:08:43.969Z,29.75
2016-04-11T09:09:43.800Z,29.66
2016-04-11T09:10:44.022Z,29.66
2016-04-11T09:11:43.883Z,29.37
2016-04-11T09:12:43.652Z,29.85
2016-04-11T09:13:43.608Z,29.56
2016-04-11T09:14:43.563Z,29.47
2016-04-11T09:15:43.550Z,29.66
2016-04-11T09:16:43.444Z,29.47
2016-04-11T09:17:43.430Z,29.47
2016-04-11T09:18:46.402Z,29.66
2016-04-11T09:19:43.327Z,29.66
2016-04-11T09:20:43.266Z,29.56
2016-04-11T09:21:43.316Z,29.56
2016-04-11T09:22:46.413Z,29.47
2016-04-11T09:23:43.166Z,29.47
2016-04-11T09:24:43.074Z,29.56
2016-04-11T09:25:43.062Z,29.47
2016-04-11T09:26:43.018Z,29.66
2016-04-11T09:27:42.942Z,29.56
2016-04-11T09:28:42.929Z,29.56
2016-04-11T09:29:42.838Z,29.66
2016-04-11T09:30:42.794Z,29.56
2016-04-11T09:31:42.812Z,29.47
2016-04-11T09:32:42.706Z,29.56
2016-04-11T09:33:42.645Z,29.47
2016-04-11T09:34:42.648Z,29.56
2016-04-11T09:35:42.604Z,29.75
2016-04-11T09:36:42.764Z,29.94
2016-04-11T09:37:42.469Z,29.85
2016-04-11T09:38:42.425Z,30.14
2016-04-11T09:39:45.381Z,29.94
2016-04-11T09:40:45.336Z,30.04
2016-04-11T09:41:42.261Z,29.85
2016-04-11T09:42:42.232Z,29.85
2016-04-11T09:43:42.376Z,30.14
2016-04-11T09:44:42.128Z,29.94
2016-04-11T09:45:42.068Z,29.75
2016-04-11T09:46:42.024Z,29.75
2016-04-11T09:47:42.074Z,29.75
2016-04-11T09:48:42.014Z,29.85
2016-04-11T09:49:41.924Z,29.94
2016-04-11T09:50:42.176Z,30.14
2016-04-11T09:51:41.819Z,30.14
2016-04-11T09:52:41.791Z,29.94
2016-04-11T09:53:41.715Z,29.94
2016-04-11T09:54:41.687Z,29.75
2016-04-11T09:55:41.626Z,29.85
2016-04-11T09:56:41.583Z,29.75
2016-04-11T09:57:41.851Z,30.04
2016-04-11T09:58:41.759Z,29.85
2016-04-11T09:59:41.434Z,29.85
2016-04-11T10:00:41.406Z,30.04
2016-04-11T10:01:43.034Z,29.85
2016-04-11T10:02:41.317Z,29.85
2016-04-11T10:03:41.242Z,29.85
2016-04-11T10:04:41.213Z,30.04
2016-04-11T10:05:41.248Z,29.85
2016-04-11T10:06:41.156Z,29.85
2016-04-11T10:07:41.065Z,29.85
2016-04-11T10:08:41.067Z,29.75
2016-04-11T10:09:40.962Z,29.85
2016-04-11T10:10:40.933Z,29.85
2016-04-11T10:11:41.092Z,29.85
2016-04-11T10:12:40.844Z,29.85
2016-04-11T10:13:40.863Z,29.85
2016-04-11T10:14:40.724Z,29.85
2016-04-11T10:15:40.899Z,29.85
2016-04-11T10:16:40.855Z,29.85
2016-04-11T10:17:40.591Z,29.85
2016-04-11T10:18:40.610Z,29.85
2016-04-11T10:19:40.722Z,29.85
2016-04-11T10:20:40.460Z,29.85
2016-04-11T10:21:40.712Z,29.85
2016-04-11T10:22:40.558Z,29.94
2016-04-11T10:23:40.999Z,29.85
2016-04-11T10:24:40.329Z,29.94
2016-04-11T10:25:40.363Z,29.85
2016-04-11T10:26:41.038Z,29.94
2016-04-11T10:27:43.790Z,30.04
2016-04-11T10:28:43.279Z,30.04
2016-04-11T10:29:40.202Z,29.85
2016-04-11T10:30:40.830Z,29.94
2016-04-11T10:31:39.942Z,29.94
2016-04-11T10:32:39.898Z,29.94
2016-04-11T10:33:39.963Z,29.94
2016-04-11T10:34:39.795Z,29.94
2016-04-11T10:35:39.812Z,30.04
2016-04-11T10:36:39.706Z,30.04
2016-04-11T10:37:39.708Z,29.85
2016-04-11T10:38:39.601Z,30.04
2016-04-11T10:39:39.604Z,30.14
2016-04-11T10:40:39.529Z,30.23
2016-04-11T10:41:39.453Z,30.33
2016-04-11T10:42:42.644Z,30.14
2016-04-11T10:43:39.647Z,30.23
2016-04-11T10:44:39.805Z,30.23
2016-04-11T10:45:39.824Z,30.04
2016-04-11T10:46:39.233Z,30.04
2016-04-11T10:47:39.204Z,30.43
2016-04-11T10:48:39.535Z,30.33
2016-04-11T10:49:39.538Z,30.43
2016-04-11T10:50:39.149Z,30.04
2016-04-11T10:51:38.996Z,29.85
2016-04-11T10:52:39.108Z,30.14
2016-04-11T10:53:38.939Z,29.85
2016-04-11T10:54:38.879Z,30.04
2016-04-11T10:55:38.882Z,30.33
2016-04-11T10:56:38.774Z,30.23
2016-04-11T10:57:38.716Z,29.94
2016-04-11T10:58:39.327Z,30.04
2016-04-11T10:59:38.658Z,30.23
2016-04-11T11:00:38.582Z,30.23
2016-04-11T11:01:38.538Z,30.04
2016-04-11T11:02:38.509Z,30.04
2016-04-11T11:03:38.451Z,30.23
2016-04-11T11:04:49.938Z,30.04
2016-04-11T11:05:38.346Z,30.04
2016-04-11T11:06:38.301Z,30.33
2016-04-11T11:07:38.273Z,30.33
2016-04-11T11:08:38.197Z,30.33
2016-04-11T11:09:38.185Z,30.23
2016-04-11T11:10:38.126Z,30.33
2016-04-11T11:11:38.112Z,30.23
2016-04-11T11:12:38.036Z,30.23
2016-04-11T11:13:37.993Z,30.23
2016-04-11T11:14:38.120Z,30.23
2016-04-11T11:15:37.873Z,30.14
2016-04-11T11:16:37.828Z,30.14
2016-04-11T11:17:37.786Z,30.14
2016-04-11T11:18:37.756Z,30.04
2016-04-11T11:19:37.805Z,30.04
2016-04-11T11:20:37.668Z,30.14
2016-04-11T11:21:37.592Z,30.04
2016-04-11T11:22:37.532Z,30.23
2016-04-11T11:23:37.551Z,30.04
2016-04-11T11:24:37.554Z,30.23
2016-04-11T11:25:37.416Z,30.23
2016-04-11T11:26:37.543Z,30.23
2016-04-11T11:27:37.312Z,30.54
2016-04-11T11:28:37.252Z,30.43
2016-04-11T11:29:40.224Z,30.43
2016-04-11T11:30:37.163Z,30.43
2016-04-11T11:31:40.151Z,30.52
2016-04-11T11:32:40.106Z,30.33
2016-04-11T11:33:37.031Z,30.23
2016-04-11T11:34:37.048Z,30.52
2016-04-11T11:35:36.973Z,30.52
2016-04-11T11:36:37.195Z,30.52
2016-04-11T11:37:36.854Z,30.43
2016-04-11T11:38:36.795Z,30.43
2016-04-11T11:39:36.828Z,30.33
2016-04-11T11:40:36.690Z,30.62
2016-04-11T11:41:36.662Z,30.33
2016-04-11T11:42:36.617Z,30.33
2016-04-11T11:43:36.620Z,30.33
2016-04-11T11:44:36.514Z,30.35
2016-04-11T11:45:36.454Z,30.33
2016-04-11T11:46:36.425Z,30.62
2016-04-11T11:47:36.428Z,30.23
2016-04-11T11:48:36.337Z,30.52
2016-04-11T11:49:36.339Z,30.62
2016-04-11T11:50:36.280Z,30.71
2016-04-11T11:51:36.188Z,30.71
2016-04-11T11:52:36.145Z,30.71
2016-04-11T11:53:36.100Z,30.62
2016-04-11T11:54:36.119Z,30.52
2016-04-11T11:55:36.012Z,30.62
2016-04-11T11:56:35.968Z,30.71
2016-04-11T11:57:35.908Z,30.43
2016-04-11T11:58:35.879Z,30.62
2016-04-11T11:59:35.960Z,30.62
2016-04-11T12:00:35.806Z,30.62
2016-04-11T12:01:36.232Z,30.62
2016-04-11T12:02:35.656Z,30.71
2016-04-11T12:03:35.626Z,30.71
2016-04-11T12:04:35.599Z,30.63
2016-04-11T12:05:35.586Z,30.71
2016-04-11T12:06:35.510Z,30.92
2016-04-11T12:07:35.559Z,30.62
2016-04-11T12:08:35.548Z,30.71
2016-04-11T12:09:35.361Z,30.62
2016-04-11T12:10:35.318Z,30.81
2016-04-11T12:11:35.258Z,30.62
2016-04-11T12:12:35.214Z,30.62
2016-04-11T12:13:35.389Z,30.73
2016-04-11T12:14:35.126Z,30.9
2016-04-11T12:15:35.066Z,30.62
2016-04-11T12:16:35.021Z,30.9
2016-04-11T12:17:34.993Z,30.81
2016-04-11T12:18:34.917Z,30.82
2016-04-11T12:19:34.873Z,30.71
2016-04-11T12:20:34.844Z,30.63
2016-04-11T12:21:34.800Z,30.81
2016-04-11T12:22:37.960Z,30.71
2016-04-11T12:23:34.713Z,30.81
2016-04-11T12:24:34.636Z,30.81
2016-04-11T12:25:34.608Z,30.71
2016-04-11T12:26:34.564Z,30.9
2016-04-11T12:27:34.504Z,30.81
2016-04-11T12:28:34.460Z,30.9
2016-04-11T12:29:34.524Z,30.62
2016-04-11T12:30:34.403Z,30.71
2016-04-11T12:31:34.343Z,30.92
2016-04-11T12:32:34.283Z,30.81
2016-04-11T12:33:34.239Z,30.9
2016-04-11T12:34:34.195Z,30.81
2016-04-11T12:35:34.151Z,30.9
2016-04-11T12:36:34.122Z,30.9
2016-04-11T12:37:37.078Z,30.9
2016-04-11T12:38:34.065Z,30.9
2016-04-11T12:39:34.131Z,30.92
2016-04-11T12:40:33.962Z,30.9
2016-04-11T12:41:41.620Z,31.02
2016-04-11T12:42:33.841Z,31.2
2016-04-11T12:43:33.875Z,30.9
2016-04-11T12:44:33.769Z,31.1
2016-04-11T12:45:33.725Z,30.81
2016-04-11T12:46:33.617Z,31.02
2016-04-11T12:47:33.870Z,30.92
2016-04-11T12:48:33.857Z,31.1
2016-04-11T12:49:33.486Z,31.02
2016-04-11T12:50:33.473Z,30.9
2016-04-11T12:51:33.491Z,31
2016-04-11T12:52:33.353Z,31
2016-04-11T12:53:33.324Z,31